Time;durP1;ratioP1;P1;durP2;ratioP2;P2;SDS_P1;SDS_P2;PMS_P1;PMS_P2;Temp;Humidity;BMP_temperature;BMP_pressure;BME280_temperature;BME280_humidity;BME280_pressure;Samples;Min_cycle;Max_cycle;Signal;HPM_P1;HPM_P2
2020/12/22 00:01:37;;;;;;;3.67;2.63;;;14.10;99.90;;;;;;4957068;29;20197;-90
2020/12/22 00:04:04;;;;;;;2.57;2.37;;;13.90;99.90;;;;;;4956708;29;20229;-89
2020/12/22 00:06:31;;;;;;;2.50;2.30;;;13.80;99.90;;;;;;4956995;29;20256;-89
2020/12/22 00:08:57;;;;;;;2.80;2.60;;;13.90;99.90;;;;;;4956962;29;20237;-89
2020/12/22 00:11:23;;;;;;;3.30;3.00;;;13.90;99.90;;;;;;4956587;29;20197;-90
2020/12/22 00:13:50;;;;;;;2.40;2.20;;;13.80;99.90;;;;;;4957379;29;20213;-89
2020/12/22 00:16:16;;;;;;;3.28;2.97;;;13.90;99.90;;;;;;4938863;29;20962;-89
2020/12/22 00:18:43;;;;;;;3.97;2.50;;;13.90;99.90;;;;;;4956473;29;20215;-89
2020/12/22 00:21:09;;;;;;;2.30;2.10;;;13.90;99.90;;;;;;4956488;29;20606;-90
2020/12/22 00:23:36;;;;;;;1.97;1.73;;;13.90;99.90;;;;;;4956418;29;20329;-90
2020/12/22 00:26:03;;;;;;;2.10;2.00;;;14.00;99.90;;;;;;4956555;29;20247;-90
2020/12/22 00:28:29;;;;;;;1.53;1.43;;;13.80;99.90;;;;;;4956225;29;20210;-90
2020/12/22 00:30:56;;;;;;;2.07;1.63;;;13.80;99.90;;;;;;4956484;29;20226;-89
2020/12/22 00:33:22;;;;;;;1.97;1.57;;;13.80;99.90;;;;;;4956227;29;20193;-90
2020/12/22 00:35:49;;;;;;;1.87;1.30;;;13.70;99.90;;;;;;4939314;29;20212;-89
2020/12/22 00:38:15;;;;;;;2.90;1.20;;;13.70;99.90;;;;;;4956416;29;20220;-89
2020/12/22 00:40:42;;;;;;;1.43;1.30;;;13.60;99.90;;;;;;4939082;29;20220;-90
2020/12/22 00:43:09;;;;;;;1.73;1.27;;;13.70;99.90;;;;;;4948349;29;20205;-90
2020/12/22 00:45:35;;;;;;;3.03;1.50;;;13.80;99.90;;;;;;4939038;29;20243;-90
2020/12/22 00:48:01;;;;;;;2.37;1.67;;;13.80;99.90;;;;;;4956103;29;20316;-91
2020/12/22 00:50:28;;;;;;;1.50;1.40;;;13.80;99.90;;;;;;4955753;29;20201;-90
2020/12/22 00:52:54;;;;;;;4.70;1.80;;;13.80;99.90;;;;;;4956311;29;20680;-89
2020/12/22 00:55:21;;;;;;;4.93;2.00;;;13.70;99.90;;;;;;4956028;28;20212;-90
2020/12/22 00:57:51;;;;;;;2.40;1.53;;;13.60;99.90;;;;;;4956190;28;20628;-90
2020/12/22 01:00:17;;;;;;;2.23;1.83;;;13.60;99.90;;;;;;4939025;29;20215;-90
2020/12/22 01:02:44;;;;;;;2.57;1.70;;;13.60;99.90;;;;;;4956422;29;20223;-90
2020/12/22 01:05:10;;;;;;;4.60;1.90;;;13.60;99.90;;;;;;4955656;29;20256;-90
2020/12/22 01:07:37;;;;;;;2.03;1.33;;;13.60;99.90;;;;;;4939103;29;20241;-90
2020/12/22 01:10:04;;;;;;;2.70;1.53;;;13.70;99.90;;;;;;4956123;29;20290;-91
2020/12/22 01:12:30;;;;;;;2.50;1.30;;;13.60;99.90;;;;;;4955883;29;20208;-90
2020/12/22 01:14:57;;;;;;;2.67;1.03;;;13.60;99.90;;;;;;4955990;29;20259;-90
2020/12/22 01:17:24;;;;;;;4.20;1.20;;;13.60;99.90;;;;;;4955443;29;20323;-89
2020/12/22 01:19:52;;;;;;;3.80;1.37;;;13.50;99.90;;;;;;4955613;29;20197;-89
2020/12/22 01:22:18;;;;;;;4.80;1.23;;;13.60;99.90;;;;;;4955567;29;20241;-90
2020/12/22 01:24:45;;;;;;;1.83;1.20;;;13.60;99.90;;;;;;4955571;29;20224;-89
2020/12/22 01:27:11;;;;;;;2.70;1.37;;;13.70;99.90;;;;;;4955935;29;20295;-90
2020/12/22 01:29:38;;;;;;;3.67;1.50;;;13.70;99.90;;;;;;4955475;29;20202;-90
2020/12/22 01:32:05;;;;;;;3.53;1.40;;;13.70;99.90;;;;;;4955887;29;20210;-89
2020/12/22 01:34:31;;;;;;;1.87;1.40;;;13.70;99.90;;;;;;4955936;29;20199;-89
2020/12/22 01:36:58;;;;;;;2.67;1.53;;;13.70;99.90;;;;;;4955974;29;20237;-90
2020/12/22 01:39:24;;;;;;;7.57;1.93;;;13.70;99.90;;;;;;4938667;29;20228;-90
2020/12/22 01:41:50;;;;;;;4.43;1.90;;;13.70;99.90;;;;;;4956095;29;20207;-90
2020/12/22 01:44:17;;;;;;;2.87;2.00;;;13.70;99.90;;;;;;4955462;29;20637;-90
2020/12/22 01:46:45;;;;;;;4.40;2.17;;;13.70;99.90;;;;;;4955858;29;20237;-90
2020/12/22 01:49:17;;;;;;;3.57;2.20;;;13.70;99.90;;;;;;4955637;29;20201;-89
2020/12/22 01:51:44;;;;;;;2.40;2.20;;;13.70;99.90;;;;;;4955394;28;20709;-90
2020/12/22 01:54:12;;;;;;;4.90;2.60;;;13.70;99.90;;;;;;4938594;29;20210;-90
2020/12/22 01:56:39;;;;;;;6.60;2.60;;;13.80;99.90;;;;;;4938385;29;20709;-90
2020/12/22 01:59:05;;;;;;;5.40;2.33;;;13.80;99.90;;;;;;4955659;29;20205;-91
2020/12/22 02:01:33;;;;;;;4.47;2.33;;;13.80;99.90;;;;;;4955541;29;20200;-91
2020/12/22 02:04:00;;;;;;;3.13;2.70;;;13.70;99.90;;;;;;4955376;29;20235;-90
2020/12/22 02:06:28;;;;;;;2.73;2.40;;;13.70;99.90;;;;;;4955486;28;20739;-90
2020/12/22 02:08:55;;;;;;;3.33;2.00;;;13.70;99.90;;;;;;4941886;29;20205;-90
2020/12/22 02:11:25;;;;;;;3.80;2.13;;;13.80;99.90;;;;;;4959144;29;20209;-90
2020/12/22 02:13:52;;;;;;;2.43;2.30;;;13.70;99.90;;;;;;4959359;29;20212;-90
2020/12/22 02:16:19;;;;;;;3.27;2.30;;;13.70;99.90;;;;;;4941585;29;20236;-90
2020/12/22 02:18:46;;;;;;;2.40;2.20;;;13.70;99.90;;;;;;4958597;29;20601;-90
2020/12/22 02:21:13;;;;;;;2.57;2.30;;;13.70;99.90;;;;;;4958625;29;20253;-89
2020/12/22 02:23:39;;;;;;;3.30;2.10;;;13.90;99.90;;;;;;4958229;29;20331;-89
2020/12/22 02:26:06;;;;;;;2.10;2.00;;;13.80;99.90;;;;;;4958317;29;20288;-89
2020/12/22 02:28:32;;;;;;;2.73;2.00;;;13.80;99.90;;;;;;4958710;29;20210;-89
2020/12/22 02:30:59;;;;;;;2.43;1.70;;;13.80;99.90;;;;;;4958366;29;20693;-89
2020/12/22 02:33:26;;;;;;;2.80;1.53;;;13.90;99.90;;;;;;4958263;29;20209;-89
2020/12/22 02:35:53;;;;;;;2.17;1.63;;;13.90;99.90;;;;;;4958224;29;20213;-89
2020/12/22 02:38:21;;;;;;;3.20;2.10;;;13.90;99.90;;;;;;4958146;29;20213;-90
2020/12/22 02:40:47;;;;;;;3.40;1.33;;;13.90;99.90;;;;;;4958465;29;20228;-89
2020/12/22 02:43:15;;;;;;;2.73;1.57;;;13.90;99.90;;;;;;4958477;29;20202;-89
2020/12/22 02:45:42;;;;;;;1.40;1.40;;;13.90;99.90;;;;;;4958488;29;20225;-90
2020/12/22 02:48:09;;;;;;;3.80;1.53;;;13.90;99.90;;;;;;4957991;29;20716;-89
2020/12/22 02:50:36;;;;;;;1.30;1.20;;;13.90;99.90;;;;;;4958034;29;20240;-89
2020/12/22 02:53:03;;;;;;;2.00;1.53;;;13.80;99.90;;;;;;4958428;29;20208;-89
2020/12/22 02:55:30;;;;;;;1.90;1.63;;;13.90;99.90;;;;;;4958380;29;20267;-89
2020/12/22 02:57:57;;;;;;;1.73;1.63;;;13.90;99.90;;;;;;4958341;29;20237;-89
2020/12/22 03:00:24;;;;;;;1.70;1.60;;;13.90;99.90;;;;;;4958291;29;20607;-89
2020/12/22 03:02:50;;;;;;;1.60;1.50;;;13.90;99.90;;;;;;4958106;29;20197;-89
2020/12/22 03:05:17;;;;;;;1.73;1.63;;;13.90;99.90;;;;;;4957961;29;20703;-88
2020/12/22 03:07:44;;;;;;;1.60;1.50;;;14.00;99.90;;;;;;4941005;29;20285;-89
2020/12/22 03:10:12;;;;;;;2.13;1.43;;;13.90;99.90;;;;;;4940740;29;20217;-90
2020/12/22 03:12:39;;;;;;;1.77;1.20;;;14.00;99.90;;;;;;4941291;29;20629;-89
2020/12/22 03:15:07;;;;;;;2.57;1.40;;;14.00;99.90;;;;;;4957712;29;20205;-90
2020/12/22 03:17:34;;;;;;;1.53;1.43;;;14.00;99.90;;;;;;4957736;28;20235;-88
2020/12/22 03:20:00;;;;;;;1.97;1.30;;;13.90;99.90;;;;;;4958047;29;20565;-89
2020/12/22 03:22:27;;;;;;;1.10;1.10;;;13.90;99.90;;;;;;4957559;29;20248;-89
2020/12/22 03:24:54;;;;;;;1.60;1.47;;;13.90;99.90;;;;;;4940689;29;20709;-90
2020/12/22 03:27:20;;;;;;;1.50;1.40;;;14.00;99.90;;;;;;4957327;29;20232;-90
2020/12/22 03:29:48;;;;;;;1.20;1.10;;;13.90;99.90;;;;;;4957726;29;20289;-89
2020/12/22 03:32:14;;;;;;;0.90;0.90;;;13.80;99.90;;;;;;4957985;29;20206;-89
2020/12/22 03:34:40;;;;;;;1.00;1.00;;;13.90;99.90;;;;;;4957257;29;20205;-89
2020/12/22 03:37:07;;;;;;;1.00;1.00;;;13.90;99.90;;;;;;4957164;29;20241;-89
2020/12/22 03:39:33;;;;;;;1.50;1.40;;;13.90;99.90;;;;;;4940458;29;20213;-89
2020/12/22 03:42:00;;;;;;;1.60;1.20;;;13.90;99.90;;;;;;4956983;29;20214;-89
2020/12/22 03:44:26;;;;;;;0.97;0.97;;;14.00;99.90;;;;;;4957598;29;20210;-89
2020/12/22 03:46:54;;;;;;;1.43;1.10;;;14.00;99.90;;;;;;4956944;29;20240;-89
2020/12/22 03:49:20;;;;;;;2.83;0.90;;;14.00;99.90;;;;;;4957705;29;20220;-89
2020/12/22 03:51:46;;;;;;;0.70;0.70;;;14.10;99.90;;;;;;4957254;29;20246;-89
2020/12/22 03:54:13;;;;;;;0.80;0.80;;;14.10;99.90;;;;;;4957158;29;20206;-89
2020/12/22 03:56:40;;;;;;;0.93;0.70;;;14.10;99.90;;;;;;4939886;29;20368;-89
2020/12/22 03:59:06;;;;;;;0.70;0.70;;;13.90;99.90;;;;;;4957176;29;20288;-89
2020/12/22 04:01:32;;;;;;;0.70;0.70;;;13.90;99.90;;;;;;4957027;29;20202;-89
2020/12/22 04:04:00;;;;;;;1.40;0.80;;;14.00;99.90;;;;;;4957568;29;20208;-89
2020/12/22 04:06:26;;;;;;;0.70;0.70;;;14.00;99.90;;;;;;4956837;29;20238;-89
2020/12/22 04:08:53;;;;;;;0.60;0.60;;;14.00;99.90;;;;;;4939683;29;20284;-89
2020/12/22 04:11:20;;;;;;;1.47;0.60;;;14.00;99.90;;;;;;4957332;29;20206;-89
2020/12/22 04:13:46;;;;;;;0.57;0.50;;;14.00;99.90;;;;;;4956661;29;20248;-88
2020/12/22 04:16:13;;;;;;;0.60;0.60;;;14.10;99.90;;;;;;4956235;29;20617;-89
2020/12/22 04:18:39;;;;;;;0.47;0.47;;;14.10;99.90;;;;;;4957243;29;20214;-90
2020/12/22 04:21:07;;;;;;;0.60;0.60;;;14.10;99.90;;;;;;4939807;29;20206;-89
2020/12/22 04:23:33;;;;;;;0.93;0.33;;;14.10;99.90;;;;;;4956406;29;20297;-89
2020/12/22 04:26:00;;;;;;;0.30;0.30;;;14.00;99.90;;;;;;4939405;29;20697;-90
2020/12/22 04:28:26;;;;;;;0.97;0.40;;;14.00;99.90;;;;;;4956346;29;20207;-90
2020/12/22 04:30:52;;;;;;;0.50;0.50;;;14.00;99.90;;;;;;4956309;28;20213;-89
2020/12/22 04:33:19;;;;;;;0.50;0.50;;;14.00;99.90;;;;;;4956195;29;20309;-89
2020/12/22 04:35:46;;;;;;;0.53;0.30;;;14.10;99.90;;;;;;4956504;29;20216;-90
2020/12/22 04:38:13;;;;;;;0.37;0.37;;;14.10;99.90;;;;;;4939021;29;20208;-90
2020/12/22 04:40:39;;;;;;;0.40;0.40;;;14.10;99.90;;;;;;4956234;29;20209;-89
2020/12/22 04:43:06;;;;;;;0.30;0.30;;;14.10;99.90;;;;;;4956682;29;20292;-90
2020/12/22 04:45:34;;;;;;;0.30;0.30;;;14.20;99.90;;;;;;4956384;29;20320;-90
2020/12/22 04:48:00;;;;;;;0.60;0.60;;;14.20;99.90;;;;;;4955895;29;20232;-89
2020/12/22 04:50:26;;;;;;;0.50;0.50;;;14.20;99.90;;;;;;4955809;29;20557;-89
2020/12/22 04:52:53;;;;;;;0.67;0.67;;;14.30;99.90;;;;;;4956012;29;20645;-90
2020/12/22 04:55:22;;;;;;;0.70;0.70;;;14.30;99.90;;;;;;4956355;29;20224;-90
2020/12/22 04:57:49;;;;;;;1.60;0.60;;;14.30;99.90;;;;;;4956317;29;20232;-90
2020/12/22 05:00:16;;;;;;;0.90;0.53;;;14.30;99.90;;;;;;4956519;29;20214;-90
2020/12/22 05:02:44;;;;;;;0.70;0.30;;;14.40;99.90;;;;;;4955934;29;20444;-90
2020/12/22 05:05:11;;;;;;;2.40;0.40;;;14.40;99.90;;;;;;4956105;29;20249;-90
2020/12/22 05:07:38;;;;;;;0.93;0.40;;;14.50;99.90;;;;;;4956000;29;20231;-90
2020/12/22 05:10:08;;;;;;;1.57;0.50;;;14.50;99.90;;;;;;4956135;29;20614;-91
2020/12/22 05:12:38;;;;;;;2.00;0.50;;;14.50;99.90;;;;;;4955937;29;20210;-89
2020/12/22 05:15:06;;;;;;;2.57;1.13;;;14.50;99.90;;;;;;4938927;29;20206;-89
2020/12/22 05:17:40;;;;;;;0.40;0.33;;;14.50;99.90;;;;;;4955426;29;20292;-90
2020/12/22 05:20:08;;;;;;;1.30;0.40;;;14.50;99.90;;;;;;4955922;29;20204;-90
2020/12/22 05:22:36;;;;;;;1.03;0.50;;;14.60;99.90;;;;;;4955368;29;20250;-90
2020/12/22 05:25:04;;;;;;;0.93;0.60;;;14.60;99.90;;;;;;4955793;29;20709;-91
2020/12/22 05:27:31;;;;;;;0.83;0.20;;;14.60;99.90;;;;;;4955943;29;20285;-91
2020/12/22 05:30:00;;;;;;;1.03;0.40;;;14.60;99.90;;;;;;4955504;29;20559;-90
2020/12/22 05:32:27;;;;;;;2.60;0.40;;;14.70;99.90;;;;;;4938632;29;20658;-90
2020/12/22 05:34:54;;;;;;;1.53;0.53;;;14.60;99.90;;;;;;4955779;29;20255;-90
2020/12/22 05:37:23;;;;;;;1.23;0.50;;;14.60;99.90;;;;;;4938600;29;20229;-89
2020/12/22 05:39:50;;;;;;;0.93;0.60;;;14.70;99.90;;;;;;4956240;29;20249;-90
2020/12/22 05:42:17;;;;;;;0.70;0.50;;;14.60;99.90;;;;;;4941081;29;20234;-90
2020/12/22 05:44:47;;;;;;;4.47;0.70;;;14.60;99.90;;;;;;4959262;29;20210;-91
2020/12/22 05:47:17;;;;;;;1.27;0.70;;;14.60;99.90;;;;;;4959525;29;20221;-90
2020/12/22 05:49:54;;;;;;;1.27;0.53;;;14.60;99.90;;;;;;4959150;29;20297;-90
2020/12/22 05:52:22;;;;;;;1.90;0.80;;;14.60;99.90;;;;;;4959539;29;20296;-90
2020/12/22 05:54:50;;;;;;;4.07;0.80;;;14.60;99.90;;;;;;4959782;29;20242;-90
2020/12/22 05:57:20;;;;;;;0.77;0.60;;;14.70;99.90;;;;;;4941870;29;20253;-90
2020/12/22 05:59:47;;;;;;;2.73;0.80;;;14.60;99.90;;;;;;4959102;29;20614;-90
2020/12/22 06:02:24;;;;;;;2.63;0.70;;;14.50;99.90;;;;;;4959637;29;20201;-90
2020/12/22 06:04:52;;;;;;;2.43;0.80;;;14.60;99.90;;;;;;4959239;29;20228;-90
2020/12/22 06:07:18;;;;;;;1.87;0.67;;;14.50;99.90;;;;;;4959067;29;20229;-90
2020/12/22 06:09:45;;;;;;;2.17;0.53;;;14.60;99.90;;;;;;4943409;29;20210;-90
2020/12/22 06:12:11;;;;;;;1.07;0.67;;;14.50;99.90;;;;;;4959941;29;20209;-90
2020/12/22 06:14:43;;;;;;;2.43;0.80;;;14.50;99.90;;;;;;4959887;29;20288;-90
2020/12/22 06:17:12;;;;;;;0.93;0.60;;;14.60;99.90;;;;;;4959478;29;20231;-90
2020/12/22 06:19:40;;;;;;;2.17;0.80;;;14.60;99.90;;;;;;4959168;29;20206;-91
2020/12/22 06:22:09;;;;;;;1.97;0.97;;;14.60;99.90;;;;;;4959294;28;20216;-91
2020/12/22 06:24:36;;;;;;;2.47;0.90;;;14.50;99.90;;;;;;4958747;29;20214;-90
2020/12/22 06:27:03;;;;;;;1.00;0.50;;;14.50;99.90;;;;;;4958714;29;20240;-91
2020/12/22 06:29:30;;;;;;;4.30;1.17;;;14.50;99.90;;;;;;4958868;29;20208;-90
2020/12/22 06:32:07;;;;;;;2.50;0.77;;;14.50;99.90;;;;;;4959292;29;20623;-90
2020/12/22 06:34:33;;;;;;;2.20;0.50;;;14.60;99.90;;;;;;4958411;29;20248;-90
2020/12/22 06:37:01;;;;;;;2.90;1.07;;;14.60;99.90;;;;;;4958142;29;20233;-90
2020/12/22 06:39:40;;;;;;;3.10;1.00;;;14.60;99.90;;;;;;4957890;29;20433;-90
2020/12/22 06:42:08;;;;;;;1.37;0.77;;;14.60;99.90;;;;;;4958453;29;20201;-90
2020/12/22 06:44:35;;;;;;;1.93;0.60;;;14.60;99.90;;;;;;4958134;29;20205;-90
2020/12/22 06:47:03;;;;;;;1.40;0.53;;;14.50;99.90;;;;;;4958248;29;20241;-90
2020/12/22 06:49:52;;;;;;;1.17;0.60;;;14.30;99.90;;;;;;4958591;29;20213;-90
2020/12/22 06:52:33;;;;;;;0.67;0.67;;;14.40;99.90;;;;;;4958304;28;20225;-88
2020/12/22 06:55:00;;;;;;;3.37;0.70;;;14.30;99.90;;;;;;4958015;29;20252;-90
2020/12/22 06:57:47;;;;;;;2.10;0.80;;;14.20;99.90;;;;;;4941162;29;20229;-88
2020/12/22 07:00:38;;;;;;;0.90;0.60;;;14.10;99.90;;;;;;4958472;29;20300;-89
2020/12/22 07:03:14;;;;;;;2.03;0.87;;;14.00;99.90;;;;;;4954320;29;20573;-89
2020/12/22 07:05:43;;;;;;;2.23;0.90;;;14.00;99.90;;;;;;4957837;29;20237;-89
2020/12/22 07:08:11;;;;;;;1.07;0.83;;;14.00;99.90;;;;;;4957645;29;20243;-89
2020/12/22 07:10:39;;;;;;;2.42;1.00;;;14.10;99.90;;;;;;4958078;29;20448;-90
2020/12/22 07:13:08;;;;;;;1.87;0.67;;;14.00;99.90;;;;;;4957660;29;20224;-89
2020/12/22 07:15:36;;;;;;;2.50;0.80;;;14.00;99.90;;;;;;4957619;29;20267;-89
2020/12/22 07:18:11;;;;;;;5.77;1.10;;;14.00;99.90;;;;;;4957676;29;20225;-89
2020/12/22 07:20:40;;;;;;;1.70;0.70;;;14.00;99.90;;;;;;4957471;29;20208;-89
2020/12/22 07:23:07;;;;;;;1.80;0.70;;;14.00;99.90;;;;;;4957595;29;20243;-89
2020/12/22 07:25:35;;;;;;;0.93;0.60;;;14.00;99.90;;;;;;4957623;29;20241;-90
2020/12/22 07:28:02;;;;;;;2.77;0.63;;;14.00;99.90;;;;;;4957692;29;20239;-89
2020/12/22 07:30:28;;;;;;;1.20;0.50;;;13.90;99.90;;;;;;4957959;29;20253;-90
2020/12/22 07:32:59;;;;;;;2.77;1.03;;;14.00;99.90;;;;;;4957372;29;20213;-90
2020/12/22 07:35:25;;;;;;;1.17;0.60;;;14.00;99.90;;;;;;4957222;29;20220;-90
2020/12/22 07:37:52;;;;;;;2.93;0.60;;;14.00;99.90;;;;;;4957181;29;20237;-89
2020/12/22 07:40:18;;;;;;;1.60;0.60;;;14.00;99.90;;;;;;4940070;29;20212;-89
2020/12/22 07:42:45;;;;;;;2.20;1.23;;;14.00;99.90;;;;;;4956779;29;20452;-89
2020/12/22 07:45:12;;;;;;;2.90;0.80;;;14.00;99.90;;;;;;4957047;29;20214;-89
2020/12/22 07:47:39;;;;;;;1.50;0.70;;;14.10;99.90;;;;;;4956992;29;20708;-90
2020/12/22 07:50:16;;;;;;;1.43;0.80;;;14.10;99.90;;;;;;4957208;29;20232;-90
2020/12/22 07:52:42;;;;;;;6.60;1.53;;;14.00;99.90;;;;;;4957397;29;20271;-89
2020/12/22 07:55:09;;;;;;;2.00;0.83;;;14.00;99.90;;;;;;4957709;29;20216;-90
2020/12/22 07:57:38;;;;;;;2.23;0.80;;;13.90;99.90;;;;;;4957408;29;20230;-89
2020/12/22 08:00:07;;;;;;;0.60;0.50;;;13.90;99.90;;;;;;4957335;29;20729;-90
2020/12/22 08:02:34;;;;;;;2.00;1.03;;;13.90;99.90;;;;;;4957976;29;20202;-89
2020/12/22 08:05:09;;;;;;;1.00;0.93;;;13.80;99.90;;;;;;4956805;28;20249;-89
2020/12/22 08:07:38;;;;;;;1.30;1.07;;;14.00;99.90;;;;;;4957756;29;20233;-89
2020/12/22 08:10:11;;;;;;;1.63;0.80;;;14.00;99.90;;;;;;4957226;29;20269;-89
2020/12/22 08:12:38;;;;;;;1.20;0.93;;;14.00;99.90;;;;;;4940363;29;20210;-89
2020/12/22 08:15:07;;;;;;;1.80;1.00;;;14.00;99.90;;;;;;4956149;29;20500;-89
2020/12/22 08:17:36;;;;;;;1.57;0.90;;;14.00;99.90;;;;;;4956489;29;20240;-90
2020/12/22 08:20:04;;;;;;;3.13;0.90;;;14.00;99.90;;;;;;4956642;29;20194;-90
2020/12/22 08:22:32;;;;;;;2.03;0.80;;;13.90;99.90;;;;;;4956199;29;20241;-90
2020/12/22 08:25:01;;;;;;;3.33;1.27;;;13.90;99.90;;;;;;4956750;29;20217;-90
2020/12/22 08:27:27;;;;;;;3.00;1.10;;;14.00;99.90;;;;;;4956140;29;20700;-90
2020/12/22 08:29:53;;;;;;;1.23;0.90;;;14.00;99.90;;;;;;4956369;29;20213;-89
2020/12/22 08:32:25;;;;;;;1.47;0.87;;;13.90;99.90;;;;;;4956793;29;20209;-89
2020/12/22 08:34:53;;;;;;;2.63;0.80;;;13.80;99.90;;;;;;4956208;29;20734;-88
2020/12/22 08:37:24;;;;;;;3.93;1.20;;;13.70;99.90;;;;;;4956734;29;20264;-89
2020/12/22 08:39:51;;;;;;;3.77;1.20;;;13.60;99.90;;;;;;4956878;29;20248;-90
2020/12/22 08:42:19;;;;;;;1.87;1.00;;;13.60;99.90;;;;;;4956366;29;20192;-89
2020/12/22 08:44:50;;;;;;;4.27;1.73;;;13.60;99.90;;;;;;4956084;29;20208;-90
2020/12/22 08:47:16;;;;;;;4.07;1.70;;;13.60;99.90;;;;;;4956426;29;20212;-90
2020/12/22 08:49:44;;;;;;;5.87;1.80;;;13.60;99.90;;;;;;4956142;29;20575;-90
2020/12/22 08:52:11;;;;;;;2.20;1.27;;;13.50;99.90;;;;;;4949175;29;20208;-89
2020/12/22 08:54:38;;;;;;;2.40;0.93;;;13.50;99.90;;;;;;4939211;29;20205;-89
2020/12/22 08:57:09;;;;;;;1.70;1.30;;;13.60;99.90;;;;;;4956251;29;20241;-90
2020/12/22 08:59:35;;;;;;;1.50;1.13;;;13.40;99.90;;;;;;4956510;29;20229;-90
2020/12/22 09:02:02;;;;;;;3.27;1.30;;;13.40;99.90;;;;;;4956188;29;20193;-90
2020/12/22 09:04:29;;;;;;;5.43;1.33;;;13.40;99.90;;;;;;4956006;29;20208;-89
2020/12/22 09:06:57;;;;;;;5.03;1.60;;;13.30;99.90;;;;;;4955621;29;20235;-90
2020/12/22 09:09:27;;;;;;;2.23;1.00;;;13.40;99.90;;;;;;4939078;29;20208;-89
2020/12/22 09:12:03;;;;;;;2.20;1.10;;;13.30;99.90;;;;;;4956233;29;20203;-90
2020/12/22 09:14:38;;;;;;;4.00;1.50;;;13.30;99.90;;;;;;4938750;29;20216;-89
2020/12/22 09:17:04;;;;;;;6.30;1.67;;;13.30;99.90;;;;;;4960064;28;20222;-90
2020/12/22 09:19:44;;;;;;;2.30;1.07;;;13.40;99.90;;;;;;4962809;28;20593;-89
2020/12/22 09:22:12;;;;;;;2.70;1.43;;;13.40;99.90;;;;;;4945050;29;20264;-89
2020/12/22 09:24:39;;;;;;;5.50;1.47;;;13.40;99.90;;;;;;4962321;29;20258;-90
2020/12/22 09:27:07;;;;;;;2.10;1.00;;;13.40;99.90;;;;;;4962038;29;20248;-90
2020/12/22 09:29:36;;;;;;;3.53;1.23;;;13.30;99.90;;;;;;4962152;29;20667;-90
2020/12/22 09:32:03;;;;;;;3.10;1.43;;;13.40;99.90;;;;;;4962036;28;20649;-90
2020/12/22 09:34:31;;;;;;;5.30;1.57;;;13.50;99.90;;;;;;4961949;28;20235;-89
2020/12/22 09:36:59;;;;;;;4.10;1.40;;;13.50;99.90;;;;;;4962016;28;20225;-89
2020/12/22 09:39:28;;;;;;;6.23;1.20;;;13.60;99.90;;;;;;4962208;29;20214;-89
2020/12/22 09:41:55;;;;;;;3.20;1.00;;;13.70;99.90;;;;;;4962124;28;20220;-90
2020/12/22 09:44:21;;;;;;;6.80;1.27;;;13.80;99.90;;;;;;4961418;28;20589;-90
2020/12/22 09:46:48;;;;;;;3.13;1.47;;;13.80;99.90;;;;;;4944873;29;20234;-90
2020/12/22 09:49:15;;;;;;;6.50;1.70;;;13.60;99.90;;;;;;4944801;29;20724;-90
2020/12/22 09:51:42;;;;;;;5.82;1.80;;;13.50;99.90;;;;;;4959821;28;20935;-91
2020/12/22 09:54:08;;;;;;;4.73;1.40;;;13.50;99.90;;;;;;4941616;29;20202;-90
2020/12/22 09:56:36;;;;;;;4.77;1.47;;;13.50;99.90;;;;;;4942437;29;20229;-89
2020/12/22 09:59:03;;;;;;;3.00;1.70;;;13.60;99.90;;;;;;4942647;29;20199;-89
2020/12/22 10:01:30;;;;;;;4.23;1.20;;;13.60;99.90;;;;;;4942343;29;20217;-89
2020/12/22 10:03:56;;;;;;;2.67;1.53;;;13.60;99.90;;;;;;4942281;29;20209;-90
2020/12/22 10:06:24;;;;;;;4.30;1.30;;;13.70;99.90;;;;;;4925247;29;20701;-90
2020/12/22 10:08:51;;;;;;;2.07;1.10;;;13.70;99.90;;;;;;4942640;29;20300;-90
2020/12/22 10:11:18;;;;;;;1.30;0.80;;;13.70;99.90;;;;;;4942523;29;20210;-89
2020/12/22 10:13:46;;;;;;;2.80;0.90;;;13.70;99.90;;;;;;4942175;29;20201;-91
2020/12/22 10:16:14;;;;;;;4.27;1.60;;;13.70;99.90;;;;;;4925263;29;20237;-90
2020/12/22 10:18:41;;;;;;;2.20;0.97;;;13.60;99.90;;;;;;4942364;29;20217;-91
2020/12/22 10:21:09;;;;;;;1.80;1.07;;;13.60;99.90;;;;;;4942896;29;20561;-90
2020/12/22 10:23:35;;;;;;;3.23;0.90;;;13.50;99.90;;;;;;4942068;29;20248;-91
2020/12/22 10:26:03;;;;;;;1.43;0.90;;;13.40;99.90;;;;;;4942468;29;20230;-90
2020/12/22 10:28:30;;;;;;;3.60;1.03;;;13.30;99.90;;;;;;4939108;29;20669;-91
2020/12/22 10:30:57;;;;;;;3.23;0.90;;;13.10;99.90;;;;;;4939268;29;20217;-89
2020/12/22 10:33:24;;;;;;;1.27;0.77;;;13.00;99.90;;;;;;4938153;29;20210;-89
2020/12/22 10:35:50;;;;;;;1.10;0.80;;;13.00;99.90;;;;;;4939195;29;20209;-90
2020/12/22 10:38:17;;;;;;;3.07;0.83;;;13.10;99.90;;;;;;4939377;29;20208;-90
2020/12/22 10:40:43;;;;;;;2.50;1.23;;;13.10;99.90;;;;;;4938976;29;20725;-91
2020/12/22 10:43:10;;;;;;;4.60;1.30;;;13.20;99.90;;;;;;4939149;29;20227;-89
2020/12/22 10:45:37;;;;;;;3.43;1.20;;;13.00;99.90;;;;;;4939140;29;20295;-92
2020/12/22 10:48:06;;;;;;;3.33;1.33;;;13.00;99.90;;;;;;4939050;29;20264;-87
2020/12/22 10:50:33;;;;;;;4.53;1.30;;;13.00;99.90;;;;;;4939156;29;20214;-90
2020/12/22 10:52:59;;;;;;;4.17;1.13;;;12.90;99.90;;;;;;4938806;29;20212;-89
2020/12/22 10:55:26;;;;;;;3.50;1.30;;;12.90;99.90;;;;;;4950044;29;20231;-89
2020/12/22 10:57:52;;;;;;;3.53;1.20;;;12.80;99.90;;;;;;4940240;29;20239;-92
2020/12/22 11:00:19;;;;;;;4.57;2.23;;;12.80;99.90;;;;;;4938838;29;20572;-89
2020/12/22 11:08:12;;;;;;;4.27;1.50;;;12.80;99.90;;;;;;4983182;23;20258;-91
2020/12/22 11:10:40;;;;;;;4.80;1.53;;;12.80;99.90;;;;;;4960185;28;20226;-92
2020/12/22 11:13:07;;;;;;;4.70;1.40;;;12.90;99.90;;;;;;4977497;28;20291;-91
2020/12/22 11:15:34;;;;;;;7.07;2.77;;;13.00;99.90;;;;;;4977403;28;20220;-90
2020/12/22 11:18:00;;;;;;;9.63;1.80;;;13.00;99.90;;;;;;4976784;28;20246;-91
2020/12/22 11:20:26;;;;;;;4.57;2.00;;;13.00;99.90;;;;;;4977318;28;20259;-91
2020/12/22 11:22:53;;;;;;;5.60;2.10;;;13.10;99.90;;;;;;4977027;28;20224;-91
2020/12/22 11:25:20;;;;;;;6.20;1.93;;;13.20;99.90;;;;;;4977217;28;20214;-91
2020/12/22 11:27:46;;;;;;;4.17;1.67;;;13.40;99.90;;;;;;4976983;28;20208;-90
2020/12/22 11:30:13;;;;;;;3.03;1.40;;;13.40;99.90;;;;;;4976927;28;20208;-91
2020/12/22 11:32:40;;;;;;;2.33;1.50;;;13.50;99.90;;;;;;4977324;28;20212;-91
2020/12/22 11:35:08;;;;;;;2.63;1.50;;;13.50;99.90;;;;;;4976681;28;20196;-91
2020/12/22 11:37:34;;;;;;;4.13;1.77;;;13.70;99.90;;;;;;4976758;28;20300;-93
2020/12/22 11:40:19;;;;;;;3.97;1.30;;;13.90;99.90;;;;;;4981318;28;20272;-96
2020/12/22 11:42:46;;;;;;;2.90;1.33;;;14.00;99.90;;;;;;4986233;28;20316;-96
2020/12/22 11:45:40;;;;;;;7.00;1.83;;;14.00;99.90;;;;;;4996689;23;20249;-94
2020/12/22 11:51:23;;;;;;;4.43;1.47;;;14.30;99.90;;;;;;4987766;23;20668;-96
2020/12/22 11:57:53;;;;;;;3.87;1.40;;;14.30;99.90;;;;;;4952850;29;20270;-96
2020/12/22 12:00:29;;;;;;;3.80;1.37;;;14.30;99.90;;;;;;4955578;29;20207;-96
2020/12/22 12:02:57;;;;;;;4.30;1.47;;;14.40;99.90;;;;;;4954982;29;20290;-96
2020/12/22 12:08:02;;;;;;;2.63;1.23;;;14.50;99.90;;;;;;5360056;23;20237;-96
2020/12/22 12:10:28;;;;;;;5.53;1.67;;;14.60;99.90;;;;;;4977142;28;20205;-96
2020/12/22 12:12:56;;;;;;;2.30;1.70;;;14.60;99.90;;;;;;4969315;28;20206;-95
2020/12/22 12:15:23;;;;;;;3.53;1.60;;;14.80;99.90;;;;;;4968719;28;20233;-95
2020/12/22 12:17:49;;;;;;;5.47;1.80;;;14.80;99.90;;;;;;4968707;28;20817;-95
2020/12/22 12:20:16;;;;;;;5.30;2.07;;;14.90;99.90;;;;;;4969505;28;20211;-95
2020/12/22 12:22:42;;;;;;;4.10;2.20;;;15.00;99.90;;;;;;4968785;28;20213;-96
2020/12/22 12:25:09;;;;;;;3.10;1.83;;;15.00;99.90;;;;;;4968172;28;20299;-95
2020/12/22 12:27:35;;;;;;;5.40;2.13;;;14.70;99.90;;;;;;4968046;28;20567;-95
2020/12/22 12:30:04;;;;;;;5.60;2.10;;;14.70;99.90;;;;;;4968029;28;20209;-94
2020/12/22 12:32:31;;;;;;;4.60;1.40;;;14.70;99.90;;;;;;4970113;28;20549;-95
2020/12/22 12:35:00;;;;;;;3.07;1.77;;;14.60;99.90;;;;;;4977161;28;20236;-93
2020/12/22 12:37:30;;;;;;;2.77;1.83;;;14.50;99.90;;;;;;4971937;28;20215;-96
2020/12/22 12:39:56;;;;;;;3.13;1.57;;;14.60;99.90;;;;;;4969239;28;20390;-94
2020/12/22 12:42:26;;;;;;;3.63;1.53;;;14.60;99.90;;;;;;4969700;28;20209;-95
2020/12/22 12:44:53;;;;;;;3.60;1.40;;;14.70;99.90;;;;;;4967595;28;20218;-95
2020/12/22 12:47:20;;;;;;;2.27;1.50;;;14.70;99.90;;;;;;4967134;28;20252;-95
2020/12/22 12:49:47;;;;;;;5.23;1.60;;;14.60;99.90;;;;;;4967532;28;20214;-96
2020/12/22 12:52:14;;;;;;;2.07;1.53;;;14.60;99.90;;;;;;4968516;28;20292;-95
2020/12/22 12:54:40;;;;;;;4.30;1.80;;;14.60;99.90;;;;;;4967473;28;20219;-94
2020/12/22 12:57:07;;;;;;;4.47;1.30;;;14.50;99.90;;;;;;4969338;28;20241;-95
2020/12/22 12:59:33;;;;;;;1.57;1.47;;;14.60;99.90;;;;;;4969311;28;20647;-95
2020/12/22 13:02:05;;;;;;;2.03;1.40;;;14.30;99.90;;;;;;4977374;28;20215;-96
2020/12/22 13:04:34;;;;;;;3.57;1.60;;;14.20;99.90;;;;;;4981318;28;20213;-94
2020/12/22 13:07:01;;;;;;;2.07;1.20;;;14.00;99.90;;;;;;4984378;28;20247;-95